createdAt,value
2017-08-09T00:00:52.809Z,71.50
2017-08-09T00:03:21.134Z,72.10
2017-08-09T00:05:49.472Z,72.60
2017-08-09T00:08:17.779Z,72.70
2017-08-09T00:10:46.117Z,72.50
2017-08-09T00:13:14.441Z,73.20
2017-08-09T00:15:42.789Z,74.50
2017-08-09T00:18:11.117Z,73.70
2017-08-09T00:20:39.455Z,74.00
2017-08-09T00:23:07.806Z,73.50
2017-08-09T00:25:36.114Z,73.80
2017-08-09T00:28:04.462Z,73.60
2017-08-09T00:30:32.795Z,74.50
2017-08-09T00:33:01.163Z,74.10
2017-08-09T00:35:29.470Z,74.50
2017-08-09T00:37:57.803Z,74.70
2017-08-09T00:40:26.115Z,74.80
2017-08-09T00:42:54.450Z,75.40
2017-08-09T00:45:22.757Z,75.80
2017-08-09T00:47:51.109Z,75.60
2017-08-09T00:50:19.425Z,75.50
2017-08-09T00:52:47.739Z,75.30
2017-08-09T00:55:16.083Z,75.50
2017-08-09T00:57:44.441Z,75.30
2017-08-09T01:00:12.777Z,75.10
2017-08-09T01:02:41.095Z,75.40
2017-08-09T01:05:09.423Z,76.30
2017-08-09T01:07:37.759Z,75.60
2017-08-09T01:10:06.095Z,75.90
2017-08-09T01:12:34.405Z,75.80
2017-08-09T01:15:02.741Z,75.60
2017-08-09T01:17:31.053Z,75.50
2017-08-09T01:19:59.388Z,75.20
2017-08-09T01:22:27.697Z,74.80
2017-08-09T01:24:56.045Z,74.40
2017-08-09T01:27:24.358Z,74.60
2017-08-09T01:29:52.674Z,74.80
2017-08-09T01:32:21.017Z,74.50
2017-08-09T01:34:49.331Z,73.80
2017-08-09T01:37:17.666Z,73.80
2017-08-09T01:39:45.983Z,73.70
2017-08-09T01:42:14.325Z,73.00
2017-08-09T01:44:42.631Z,73.00
2017-08-09T01:47:10.966Z,73.30
2017-08-09T01:49:39.275Z,73.20
2017-08-09T01:52:07.619Z,72.80
2017-08-09T01:54:35.954Z,73.30
2017-08-09T01:57:04.278Z,73.30
2017-08-09T01:59:32.600Z,73.70
2017-08-09T02:02:00.933Z,73.40
2017-08-09T02:04:29.245Z,73.40
2017-08-09T02:06:57.605Z,73.40
2017-08-09T02:09:25.923Z,73.80
2017-08-09T02:11:54.237Z,73.70
2017-08-09T02:14:22.564Z,74.50
2017-08-09T02:16:50.888Z,73.70
2017-08-09T02:19:19.246Z,73.60
2017-08-09T02:21:47.553Z,73.40
2017-08-09T02:24:16.022Z,73.50
2017-08-09T02:26:44.325Z,73.20
2017-08-09T02:29:12.675Z,73.50
2017-08-09T02:31:40.985Z,73.70
2017-08-09T02:34:09.321Z,73.80
2017-08-09T02:36:37.644Z,73.70
2017-08-09T02:39:05.973Z,74.30
2017-08-09T02:41:34.282Z,74.20
2017-08-09T02:44:02.619Z,74.00
2017-08-09T02:46:30.922Z,74.10
2017-08-09T02:48:59.238Z,73.80
2017-08-09T02:51:27.631Z,74.00
2017-08-09T02:53:55.937Z,73.60
2017-08-09T02:56:24.279Z,73.90
2017-08-09T02:58:52.587Z,74.10
2017-08-09T03:01:20.904Z,74.50
2017-08-09T03:03:49.224Z,74.50
2017-08-09T03:06:17.550Z,74.70
2017-08-09T03:08:45.850Z,74.60
2017-08-09T03:11:14.246Z,75.80
2017-08-09T03:13:42.558Z,76.00
2017-08-09T03:16:10.896Z,76.00
2017-08-09T03:18:39.445Z,75.80
2017-08-09T03:21:07.746Z,75.90
2017-08-09T03:23:36.070Z,76.20
2017-08-09T03:26:04.383Z,76.20
2017-08-09T03:28:32.702Z,75.50
2017-08-09T03:31:01.007Z,75.50
2017-08-09T03:33:29.344Z,75.50
2017-08-09T03:35:57.649Z,75.40
2017-08-09T03:38:25.973Z,75.80
2017-08-09T03:40:54.627Z,75.40
2017-08-09T03:43:23.036Z,75.60
2017-08-09T03:45:51.350Z,75.30
2017-08-09T03:48:19.687Z,75.20
2017-08-09T03:50:47.994Z,75.70
2017-08-09T03:53:16.297Z,75.20
2017-08-09T03:55:44.624Z,76.00
2017-08-09T03:58:12.920Z,75.80
2017-08-09T04:00:41.254Z,75.70
2017-08-09T04:03:09.557Z,75.90
2017-08-09T04:05:37.899Z,76.50
2017-08-09T04:08:06.204Z,77.50
2017-08-09T04:10:34.533Z,77.50
2017-08-09T04:13:02.836Z,77.10
2017-08-09T04:15:31.167Z,77.40
2017-08-09T04:17:59.503Z,77.20
2017-08-09T04:20:27.842Z,77.70
2017-08-09T04:22:56.146Z,77.70
2017-08-09T04:25:24.458Z,77.70
2017-08-09T04:27:52.782Z,77.50
2017-08-09T04:30:21.093Z,77.30
2017-08-09T04:32:49.423Z,77.70
2017-08-09T04:35:17.738Z,77.70
2017-08-09T04:37:46.053Z,77.40
2017-08-09T04:40:14.358Z,77.30
2017-08-09T04:42:42.678Z,76.70
2017-08-09T04:45:10.976Z,77.20
2017-08-09T04:47:39.312Z,77.30
2017-08-09T04:50:07.621Z,77.20
2017-08-09T04:52:35.971Z,78.00
2017-08-09T04:55:04.282Z,77.60
2017-08-09T04:57:32.603Z,77.10
2017-08-09T05:00:00.940Z,77.50
2017-08-09T05:02:29.275Z,77.50
2017-08-09T05:04:57.606Z,77.60
2017-08-09T05:07:25.909Z,77.80
2017-08-09T05:09:54.235Z,77.50
2017-08-09T05:12:22.557Z,77.70
2017-08-09T05:14:50.873Z,78.10
2017-08-09T05:17:19.180Z,78.30
2017-08-09T05:19:47.530Z,78.20
2017-08-09T05:22:15.834Z,77.80
2017-08-09T05:24:44.158Z,78.10
2017-08-09T05:27:12.456Z,77.30
2017-08-09T05:29:40.765Z,77.40
2017-08-09T05:32:09.085Z,76.50
2017-08-09T05:34:37.411Z,76.90
2017-08-09T05:37:05.747Z,75.80
2017-08-09T05:39:34.045Z,75.40
2017-08-09T05:42:02.363Z,75.50
2017-08-09T05:44:30.664Z,74.80
2017-08-09T05:46:58.994Z,75.20
2017-08-09T05:49:27.310Z,73.90
2017-08-09T05:51:55.648Z,74.50
2017-08-09T05:54:23.961Z,73.80
2017-08-09T05:56:52.290Z,72.60
2017-08-09T05:59:20.603Z,71.60
2017-08-09T06:01:48.916Z,71.40
2017-08-09T06:04:17.243Z,71.50
2017-08-09T06:06:45.554Z,70.20
2017-08-09T06:09:13.891Z,69.80
2017-08-09T06:11:42.197Z,68.80
2017-08-09T06:14:10.520Z,68.20
2017-08-09T06:16:38.836Z,67.70
2017-08-09T06:19:07.155Z,68.10
2017-08-09T06:21:35.456Z,66.50
2017-08-09T06:24:03.788Z,66.90
2017-08-09T06:26:32.113Z,67.30
2017-08-09T06:29:00.427Z,65.60
2017-08-09T06:31:28.742Z,64.70
2017-08-09T06:33:57.049Z,64.00
2017-08-09T06:36:25.387Z,62.30
2017-08-09T06:38:53.704Z,63.10
2017-08-09T06:41:22.038Z,62.80
2017-08-09T06:43:50.341Z,63.30
2017-08-09T06:46:18.667Z,62.80
2017-08-09T06:48:46.964Z,61.90
2017-08-09T06:51:15.430Z,59.10
2017-08-09T06:53:43.732Z,59.90
2017-08-09T06:56:12.054Z,58.80
2017-08-09T06:58:40.618Z,59.20
2017-08-09T07:01:09.075Z,58.60
2017-08-09T07:03:37.401Z,57.80
2017-08-09T07:06:05.715Z,57.70
2017-08-09T07:08:34.040Z,58.30
2017-08-09T07:11:02.339Z,57.50
2017-08-09T07:13:30.660Z,57.60
2017-08-09T07:15:58.970Z,57.60
2017-08-09T07:18:27.303Z,57.60
2017-08-09T07:20:55.806Z,56.10
2017-08-09T07:23:24.137Z,57.00
2017-08-09T07:25:52.438Z,56.70
2017-08-09T07:28:20.767Z,54.60
2017-08-09T07:30:49.074Z,56.50
2017-08-09T07:33:17.404Z,55.90
2017-08-09T07:35:45.724Z,55.80
2017-08-09T07:38:14.038Z,55.00
2017-08-09T07:40:42.374Z,55.00
2017-08-09T07:43:10.694Z,55.00
2017-08-09T07:45:39.016Z,54.30
2017-08-09T07:48:07.326Z,54.00
2017-08-09T07:50:35.668Z,54.20
2017-08-09T07:53:04.005Z,53.40
2017-08-09T07:55:32.335Z,54.20
2017-08-09T07:58:00.638Z,52.50
2017-08-09T08:00:28.978Z,53.60
2017-08-09T08:02:57.289Z,53.10
2017-08-09T08:05:25.619Z,52.30
2017-08-09T08:07:53.931Z,52.40
2017-08-09T08:10:22.239Z,51.60
2017-08-09T08:12:50.548Z,52.10
2017-08-09T08:15:18.865Z,52.40
2017-08-09T08:17:47.211Z,52.20
2017-08-09T08:20:15.524Z,51.30
2017-08-09T08:22:43.853Z,51.20
2017-08-09T08:25:12.172Z,51.60
2017-08-09T08:27:40.504Z,51.90
2017-08-09T08:30:08.805Z,51.20
2017-08-09T08:32:37.130Z,51.80
2017-08-09T08:35:05.433Z,48.80
2017-08-09T08:37:33.758Z,51.30
2017-08-09T08:40:02.058Z,50.20
2017-08-09T08:42:30.420Z,50.10
2017-08-09T08:44:58.730Z,48.50
2017-08-09T08:47:27.957Z,49.30
2017-08-09T08:49:56.330Z,47.90
2017-08-09T08:52:24.637Z,46.60
2017-08-09T08:54:52.965Z,47.80
2017-08-09T08:57:21.276Z,48.60
2017-08-09T08:59:49.617Z,46.30
2017-08-09T09:02:17.926Z,48.40
2017-08-09T09:04:46.250Z,47.40
2017-08-09T09:07:14.549Z,47.20
2017-08-09T09:09:42.870Z,47.50
2017-08-09T09:12:11.181Z,46.90
2017-08-09T09:14:39.504Z,45.90
2017-08-09T09:17:07.807Z,46.30
2017-08-09T09:19:36.110Z,47.70
2017-08-09T09:22:04.434Z,47.00
2017-08-09T09:24:32.753Z,49.10
2017-08-09T09:27:01.093Z,46.90
2017-08-09T09:29:29.400Z,48.30
2017-08-09T09:31:57.728Z,45.90
2017-08-09T09:34:26.033Z,45.30
2017-08-09T09:36:54.351Z,47.40
2017-08-09T09:39:22.657Z,46.20
2017-08-09T09:41:50.992Z,45.50
2017-08-09T09:44:19.302Z,45.70
2017-08-09T09:46:47.625Z,46.70
2017-08-09T09:49:15.941Z,46.90
2017-08-09T09:51:44.266Z,47.80
2017-08-09T09:54:12.568Z,46.60
2017-08-09T09:56:40.925Z,47.70
2017-08-09T09:59:09.228Z,46.10
2017-08-09T10:01:37.558Z,46.70
2017-08-09T10:04:05.890Z,43.60
2017-08-09T10:06:34.196Z,46.40
2017-08-09T10:09:02.538Z,47.70
2017-08-09T10:11:30.866Z,46.40
2017-08-09T10:13:59.196Z,47.60
2017-08-09T10:16:27.499Z,47.20
2017-08-09T10:18:55.821Z,46.40
2017-08-09T10:21:24.132Z,46.60
2017-08-09T10:23:52.444Z,46.50
2017-08-09T10:26:20.763Z,45.90
2017-08-09T10:28:49.086Z,44.80
2017-08-09T10:31:18.304Z,44.90
2017-08-09T10:33:46.639Z,46.10
2017-08-09T10:36:14.952Z,46.00
2017-08-09T10:38:43.294Z,42.90
2017-08-09T10:41:11.609Z,44.00
2017-08-09T10:43:39.924Z,44.70
2017-08-09T10:46:08.256Z,43.50
2017-08-09T10:48:36.566Z,43.40
2017-08-09T10:51:04.890Z,42.70
2017-08-09T10:53:33.192Z,43.00
2017-08-09T10:56:01.516Z,43.90
2017-08-09T10:58:29.828Z,40.00
2017-08-09T11:00:58.137Z,42.90
2017-08-09T11:03:26.437Z,41.60
2017-08-09T11:05:54.765Z,42.60
2017-08-09T11:08:23.129Z,44.40
2017-08-09T11:10:51.464Z,43.50
2017-08-09T11:13:19.769Z,43.30
2017-08-09T11:15:48.072Z,41.90
2017-08-09T11:18:16.390Z,44.30
2017-08-09T11:20:44.767Z,41.80
2017-08-09T11:23:13.104Z,42.60
2017-08-09T11:25:41.409Z,43.40
2017-08-09T11:28:09.754Z,44.00
2017-08-09T11:30:38.082Z,44.00
2017-08-09T11:33:06.399Z,40.90
2017-08-09T11:35:34.690Z,41.20
2017-08-09T11:38:03.017Z,43.40
2017-08-09T11:40:31.320Z,42.50
2017-08-09T11:42:59.654Z,43.50
2017-08-09T11:45:28.827Z,45.00
2017-08-09T11:47:57.161Z,45.60
2017-08-09T11:50:25.461Z,45.50
2017-08-09T11:52:53.770Z,44.60
2017-08-09T11:55:22.094Z,45.20
2017-08-09T11:57:50.405Z,45.20
2017-08-09T12:03:18.354Z,44.70
2017-08-09T12:05:46.686Z,44.80
2017-08-09T12:08:14.985Z,42.60
2017-08-09T12:10:43.310Z,44.10
2017-08-09T12:13:11.612Z,42.20
2017-08-09T12:15:39.945Z,41.90
2017-08-09T12:18:08.239Z,41.10
2017-08-09T12:20:36.555Z,43.30
2017-08-09T12:23:04.854Z,43.30
2017-08-09T12:25:33.178Z,43.80
2017-08-09T12:28:01.481Z,40.60
2017-08-09T12:30:29.815Z,44.00
2017-08-09T12:32:58.123Z,42.00
2017-08-09T12:35:26.420Z,42.00
2017-08-09T12:37:54.749Z,42.50
2017-08-09T12:40:23.055Z,41.60
2017-08-09T12:42:51.381Z,39.50
2017-08-09T12:45:19.714Z,43.40
2017-08-09T12:47:48.045Z,41.30
2017-08-09T12:50:16.350Z,40.30
2017-08-09T12:52:44.677Z,40.10
2017-08-09T12:55:12.980Z,40.30
2017-08-09T12:57:41.302Z,39.70
2017-08-09T13:00:09.606Z,44.70
2017-08-09T13:02:37.931Z,44.50
2017-08-09T13:05:06.230Z,42.50
2017-08-09T13:07:34.567Z,43.50
2017-08-09T13:10:02.889Z,41.10
2017-08-09T13:12:31.189Z,41.40
2017-08-09T13:14:59.505Z,40.20
2017-08-09T13:17:27.891Z,40.70
2017-08-09T13:19:56.216Z,42.40
2017-08-09T13:22:24.518Z,41.50
2017-08-09T13:24:52.838Z,42.10
2017-08-09T13:27:21.146Z,41.60
2017-08-09T13:29:49.469Z,41.50
2017-08-09T13:32:17.762Z,41.60
2017-08-09T13:34:46.093Z,43.90
2017-08-09T13:37:14.393Z,43.10
2017-08-09T13:39:42.693Z,42.20
2017-08-09T13:42:11.024Z,43.10
2017-08-09T13:44:39.325Z,42.70
2017-08-09T13:47:07.646Z,42.30
2017-08-09T13:49:35.937Z,44.90
2017-08-09T13:52:04.255Z,43.30
2017-08-09T13:54:32.548Z,43.30
2017-08-09T13:57:00.882Z,41.90
2017-08-09T13:59:29.186Z,42.40
2017-08-09T14:01:57.501Z,42.40
2017-08-09T14:04:25.909Z,40.70
2017-08-09T14:06:54.237Z,40.30
2017-08-09T14:09:22.541Z,40.40
2017-08-09T14:11:50.851Z,43.60
2017-08-09T14:14:19.164Z,41.60
2017-08-09T14:16:47.465Z,43.30
2017-08-09T14:19:15.778Z,43.60
2017-08-09T14:21:44.083Z,40.90
2017-08-09T14:24:12.413Z,42.50
2017-08-09T14:26:40.721Z,41.70
2017-08-09T14:29:09.041Z,40.60
2017-08-09T14:31:37.337Z,39.80
2017-08-09T14:34:05.669Z,42.00
2017-08-09T14:36:33.967Z,41.80
2017-08-09T14:39:02.290Z,44.90
2017-08-09T14:41:30.593Z,41.20
2017-08-09T14:43:58.944Z,43.60
2017-08-09T14:46:28.171Z,44.50
2017-08-09T14:48:56.468Z,42.20
2017-08-09T14:51:24.825Z,43.30
2017-08-09T14:53:53.135Z,44.60
2017-08-09T14:56:21.461Z,44.60
2017-08-09T14:58:49.778Z,44.10
2017-08-09T15:01:18.104Z,42.60
2017-08-09T15:03:46.421Z,42.30
2017-08-09T15:06:14.741Z,42.90
2017-08-09T15:08:43.047Z,43.40
2017-08-09T15:11:11.369Z,42.20
2017-08-09T15:13:39.683Z,43.90
2017-08-09T15:16:08.036Z,44.20
2017-08-09T15:18:36.333Z,45.50
2017-08-09T15:21:04.648Z,45.00
2017-08-09T15:23:32.966Z,42.50
2017-08-09T15:26:01.269Z,45.10
2017-08-09T15:28:29.601Z,45.20
2017-08-09T15:30:57.906Z,43.90
2017-08-09T15:33:26.243Z,44.50
2017-08-09T15:35:54.830Z,42.70
2017-08-09T15:38:23.175Z,43.90
2017-08-09T15:40:51.473Z,43.80
2017-08-09T15:43:19.817Z,44.30
2017-08-09T15:45:48.117Z,44.10
2017-08-09T15:48:16.451Z,43.60
2017-08-09T15:50:44.760Z,44.30
2017-08-09T15:53:13.076Z,44.40
2017-08-09T15:55:41.405Z,45.20
2017-08-09T15:58:09.700Z,45.50
2017-08-09T16:00:38.040Z,47.60
2017-08-09T16:03:06.394Z,45.60
2017-08-09T16:05:34.755Z,44.90
2017-08-09T16:08:03.107Z,44.60
2017-08-09T16:10:31.442Z,43.70
2017-08-09T16:12:59.751Z,44.10
2017-08-09T16:15:28.084Z,44.70
2017-08-09T16:17:56.386Z,41.90
2017-08-09T16:20:24.700Z,42.80
2017-08-09T16:22:53.016Z,43.80
2017-08-09T16:25:21.362Z,43.10
2017-08-09T16:27:49.670Z,44.60
2017-08-09T16:30:17.986Z,44.70
2017-08-09T16:32:46.306Z,45.20
2017-08-09T16:35:14.606Z,44.90
2017-08-09T16:37:42.933Z,45.00
2017-08-09T16:40:11.237Z,46.20
2017-08-09T16:42:39.557Z,45.60
2017-08-09T16:45:07.882Z,45.00
2017-08-09T16:47:36.214Z,45.40
2017-08-09T16:50:04.526Z,44.40
2017-08-09T16:52:32.851Z,44.90
2017-08-09T16:55:01.346Z,45.00
2017-08-09T16:57:29.673Z,45.50
2017-08-09T16:59:57.986Z,45.80
2017-08-09T17:02:26.413Z,46.20
2017-08-09T17:04:54.723Z,45.80
2017-08-09T17:07:23.034Z,47.20
2017-08-09T17:09:51.355Z,47.00
2017-08-09T17:12:19.657Z,48.40
2017-08-09T17:14:47.986Z,48.50
2017-08-09T17:17:16.289Z,47.50
2017-08-09T17:19:44.614Z,47.40
2017-08-09T17:22:12.927Z,48.00
2017-08-09T17:24:41.261Z,47.90
2017-08-09T17:27:09.566Z,47.70
2017-08-09T17:29:37.885Z,47.70
2017-08-09T17:32:06.194Z,47.80
2017-08-09T17:34:34.529Z,48.60
2017-08-09T17:37:02.833Z,48.10
2017-08-09T17:39:31.171Z,48.50
2017-08-09T17:41:59.476Z,48.90
2017-08-09T17:44:27.781Z,48.80
2017-08-09T17:46:56.141Z,49.00
2017-08-09T17:49:24.450Z,49.50
2017-08-09T17:51:52.778Z,50.10
2017-08-09T17:54:21.083Z,49.90
2017-08-09T17:56:49.410Z,50.60
2017-08-09T17:59:17.723Z,50.40
2017-08-09T18:01:46.050Z,50.50
2017-08-09T18:04:14.347Z,50.80
2017-08-09T18:06:42.671Z,51.10
2017-08-09T18:09:10.972Z,49.50
2017-08-09T18:11:39.283Z,50.00
2017-08-09T18:14:07.618Z,49.20
2017-08-09T18:16:35.931Z,50.20
2017-08-09T18:19:04.260Z,50.00
2017-08-09T18:21:32.567Z,48.90
2017-08-09T18:24:00.893Z,49.10
2017-08-09T18:26:29.222Z,51.00
2017-08-09T18:28:57.539Z,50.50
2017-08-09T18:31:25.846Z,51.60
2017-08-09T18:33:54.182Z,51.30
2017-08-09T18:36:22.468Z,51.30
2017-08-09T18:38:50.796Z,51.80
2017-08-09T18:41:19.107Z,51.30
2017-08-09T18:43:47.432Z,51.10
2017-08-09T18:46:15.747Z,51.10
2017-08-09T18:48:44.982Z,51.00
2017-08-09T18:51:13.371Z,52.20
2017-08-09T18:53:41.668Z,52.90
2017-08-09T18:56:10.001Z,53.90
2017-08-09T18:58:38.303Z,53.80
2017-08-09T19:01:06.634Z,55.20
2017-08-09T19:03:34.939Z,54.70
2017-08-09T19:06:03.266Z,55.90
2017-08-09T19:08:31.587Z,55.90
2017-08-09T19:10:59.926Z,55.70
2017-08-09T19:13:28.230Z,56.40
2017-08-09T19:15:56.548Z,52.10
2017-08-09T19:18:24.851Z,52.60
2017-08-09T19:20:53.167Z,53.70
2017-08-09T19:23:21.506Z,54.00
2017-08-09T19:25:49.820Z,53.80
2017-08-09T19:28:18.148Z,52.10
2017-08-09T19:30:46.453Z,53.00
2017-08-09T19:33:14.784Z,55.20
2017-08-09T19:35:43.087Z,52.60
2017-08-09T19:38:11.400Z,50.60
2017-08-09T19:40:39.723Z,51.10
2017-08-09T19:43:08.046Z,51.30
2017-08-09T19:45:36.355Z,50.80
2017-08-09T19:48:04.649Z,51.90
2017-08-09T19:50:32.970Z,51.10
2017-08-09T19:53:01.272Z,51.70
2017-08-09T19:55:29.638Z,52.70
2017-08-09T19:57:57.934Z,53.90
2017-08-09T20:00:26.256Z,55.70
2017-08-09T20:02:54.573Z,55.90
2017-08-09T20:05:22.955Z,56.50
2017-08-09T20:07:51.266Z,56.90
2017-08-09T20:10:19.601Z,57.50
2017-08-09T20:12:47.896Z,57.70
2017-08-09T20:15:16.236Z,58.20
2017-08-09T20:17:44.550Z,60.30
2017-08-09T20:20:12.886Z,62.30
2017-08-09T20:22:41.192Z,63.80
2017-08-09T20:25:09.506Z,63.00
2017-08-09T20:27:37.911Z,63.90
2017-08-09T20:30:06.227Z,64.00
2017-08-09T20:32:34.798Z,63.80
2017-08-09T20:35:03.096Z,63.60
2017-08-09T20:37:31.445Z,63.10
2017-08-09T20:39:59.823Z,62.90
2017-08-09T20:42:28.164Z,62.90
2017-08-09T20:44:56.472Z,62.20
2017-08-09T20:47:24.810Z,63.60
2017-08-09T20:49:53.113Z,60.60
2017-08-09T20:52:21.445Z,62.20
2017-08-09T20:54:49.750Z,59.90
2017-08-09T20:57:18.139Z,57.90
2017-08-09T20:59:46.465Z,57.30
2017-08-09T21:02:15.826Z,56.90
2017-08-09T21:04:44.152Z,57.10
2017-08-09T21:07:12.455Z,59.10
2017-08-09T21:09:40.777Z,59.70
2017-08-09T21:12:09.104Z,57.10
2017-08-09T21:14:37.430Z,57.30
2017-08-09T21:17:05.742Z,57.60
2017-08-09T21:19:34.079Z,57.50
2017-08-09T21:22:02.381Z,57.30
2017-08-09T21:24:30.680Z,57.40
2017-08-09T21:26:59.010Z,56.90
2017-08-09T21:29:27.312Z,57.70
2017-08-09T21:31:55.685Z,56.90
2017-08-09T21:34:23.988Z,57.80
2017-08-09T21:36:52.302Z,59.00
2017-08-09T21:39:20.620Z,60.30
2017-08-09T21:41:48.961Z,60.70
2017-08-09T21:44:17.274Z,60.60
2017-08-09T21:46:45.622Z,61.50
2017-08-09T21:49:13.936Z,61.60
2017-08-09T21:51:42.240Z,61.40
2017-08-09T21:54:10.578Z,61.20
2017-08-09T21:56:38.881Z,61.00
2017-08-09T21:59:07.215Z,60.80
2017-08-09T22:01:35.527Z,61.60
2017-08-09T22:04:03.884Z,62.00
2017-08-09T22:06:32.218Z,62.10
2017-08-09T22:09:00.560Z,62.20
2017-08-09T22:11:28.900Z,63.00
2017-08-09T22:13:57.232Z,62.00
2017-08-09T22:16:25.546Z,61.20
2017-08-09T22:18:53.844Z,62.20
2017-08-09T22:21:22.168Z,63.20
2017-08-09T22:23:50.485Z,65.20
2017-08-09T22:26:18.842Z,69.10
2017-08-09T22:28:47.160Z,71.90
2017-08-09T22:31:15.481Z,74.60
2017-08-09T22:33:43.796Z,75.40
2017-08-09T22:36:12.141Z,76.60
2017-08-09T22:38:40.999Z,76.20
2017-08-09T22:41:09.342Z,76.40
2017-08-09T22:43:37.646Z,77.40
2017-08-09T22:46:05.992Z,78.20
2017-08-09T22:48:34.325Z,78.00
2017-08-09T22:51:02.637Z,78.40
2017-08-09T22:53:30.960Z,79.60
2017-08-09T22:55:59.264Z,78.50
2017-08-09T22:58:27.602Z,79.10
2017-08-09T23:00:55.909Z,77.40
2017-08-09T23:03:24.262Z,79.20
2017-08-09T23:05:52.569Z,79.50
2017-08-09T23:08:20.900Z,79.90
2017-08-09T23:10:49.205Z,80.00
2017-08-09T23:13:17.541Z,80.00
2017-08-09T23:15:45.862Z,80.90
2017-08-09T23:18:14.172Z,80.50
2017-08-09T23:20:42.509Z,80.30
2017-08-09T23:23:10.817Z,80.10
2017-08-09T23:25:39.175Z,80.30
2017-08-09T23:28:07.491Z,80.80
2017-08-09T23:30:35.820Z,80.80
2017-08-09T23:33:04.142Z,80.90
2017-08-09T23:35:32.475Z,81.50
2017-08-09T23:38:00.786Z,82.70
2017-08-09T23:40:29.099Z,83.60
2017-08-09T23:42:57.410Z,83.70
2017-08-09T23:45:25.752Z,83.10
2017-08-09T23:47:54.070Z,84.70
2017-08-09T23:50:22.405Z,83.90
2017-08-09T23:52:50.709Z,83.30
2017-08-09T23:55:19.037Z,83.40
2017-08-09T23:57:47.369Z,84.30
